createdAt,value
2023-01-13T00:01:10.405Z,6.40
2023-01-13T00:04:13.484Z,8.45
2023-01-13T00:07:16.280Z,9.32
2023-01-13T00:10:19.518Z,7.57
2023-01-13T00:13:26.859Z,6.95
2023-01-13T00:16:30.055Z,5.13
2023-01-13T00:19:33.073Z,6.15
2023-01-13T00:22:36.833Z,6.18
2023-01-13T00:25:39.630Z,5.75
2023-01-13T00:28:42.966Z,6.25
2023-01-13T00:31:45.818Z,7.07
2023-01-13T00:34:48.945Z,5.50
2023-01-13T00:37:51.838Z,7.00
2023-01-13T00:41:02.084Z,5.55
2023-01-13T00:44:04.867Z,5.45
2023-01-13T00:47:07.939Z,5.63
2023-01-13T00:50:11.333Z,5.28
2023-01-13T00:53:15.135Z,6.05
2023-01-13T00:56:30.514Z,5.15
2023-01-13T00:59:42.263Z,5.32
2023-01-13T01:02:45.140Z,5.83
2023-01-13T01:05:48.515Z,5.62
2023-01-13T01:08:52.482Z,5.60
2023-01-13T01:11:55.632Z,5.70
2023-01-13T01:14:58.480Z,5.50
2023-01-13T01:18:01.701Z,5.83
2023-01-13T01:21:05.622Z,5.82
2023-01-13T01:24:10.116Z,5.50
2023-01-13T01:27:12.814Z,6.00
2023-01-13T01:30:16.722Z,6.00
2023-01-13T01:33:19.567Z,5.10
2023-01-13T01:36:26.521Z,5.75
2023-01-13T01:39:29.332Z,5.20
2023-01-13T01:42:51.076Z,5.62
2023-01-13T01:45:53.921Z,5.45
2023-01-13T01:49:05.776Z,4.97
2023-01-13T01:52:33.985Z,5.25
2023-01-13T01:55:38.590Z,5.85
2023-01-13T01:58:47.210Z,6.22
2023-01-13T02:01:50.522Z,5.80
2023-01-13T02:04:56.288Z,5.83
2023-01-13T02:08:00.984Z,6.03
2023-01-13T02:11:04.285Z,5.47
2023-01-13T02:14:07.093Z,5.87
2023-01-13T02:17:22.500Z,6.40
2023-01-13T02:21:06.822Z,6.30
2023-01-13T02:24:55.910Z,6.15
2023-01-13T02:29:01.843Z,6.10
2023-01-13T02:32:33.479Z,6.30
2023-01-13T02:35:36.296Z,6.80
2023-01-13T02:39:04.585Z,6.83
2023-01-13T02:42:33.062Z,6.50
2023-01-13T02:45:49.339Z,7.07
2023-01-13T02:48:56.452Z,7.28
2023-01-13T02:52:07.397Z,7.45
2023-01-13T02:55:17.320Z,7.83
2023-01-13T02:58:25.498Z,6.97
2023-01-13T03:01:28.418Z,7.28
2023-01-13T03:04:52.843Z,7.30
2023-01-13T03:08:20.160Z,8.20
2023-01-13T03:11:26.489Z,7.87
2023-01-13T03:15:04.594Z,7.30
2023-01-13T03:18:19.695Z,7.35
2023-01-13T03:21:36.166Z,8.40
2023-01-13T03:24:42.492Z,10.10
2023-01-13T03:28:04.101Z,7.90
2023-01-13T03:31:14.310Z,8.05
2023-01-13T03:34:22.484Z,10.43
2023-01-13T03:37:34.761Z,9.20
2023-01-13T03:40:54.193Z,8.40
2023-01-13T03:44:22.892Z,7.82
2023-01-13T03:47:48.815Z,8.43
2023-01-13T03:50:54.044Z,9.35
2023-01-13T03:54:00.991Z,8.23
2023-01-13T03:57:09.781Z,8.33
2023-01-13T04:00:14.741Z,8.15
2023-01-13T04:03:32.370Z,9.43
2023-01-13T04:07:06.309Z,11.88
2023-01-13T04:10:11.995Z,11.23
2023-01-13T04:13:22.413Z,11.37
2023-01-13T04:16:25.780Z,11.20
2023-01-13T04:19:28.637Z,10.35
2023-01-13T04:22:31.675Z,9.52
2023-01-13T04:25:34.647Z,10.23
2023-01-13T04:28:37.733Z,11.00
2023-01-13T04:31:41.126Z,13.02
2023-01-13T04:34:44.139Z,11.43
2023-01-13T04:37:47.032Z,9.77
2023-01-13T04:40:50.073Z,9.48
2023-01-13T04:43:52.945Z,8.20
2023-01-13T04:46:56.489Z,9.15
2023-01-13T04:49:59.465Z,9.20
2023-01-13T04:53:02.725Z,9.85
2023-01-13T04:56:05.722Z,9.75
2023-01-13T04:59:13.214Z,10.13
2023-01-13T05:02:20.067Z,10.32
2023-01-13T05:05:23.135Z,9.90
2023-01-13T05:08:25.960Z,8.88
2023-01-13T05:11:47.622Z,10.32
2023-01-13T05:15:08.790Z,11.83
2023-01-13T05:18:12.851Z,10.68
2023-01-13T05:21:33.996Z,14.52
2023-01-13T05:24:55.887Z,13.02
2023-01-13T05:28:00.501Z,12.48
2023-01-13T05:31:03.496Z,21.63
2023-01-13T05:34:06.557Z,19.42
2023-01-13T05:37:11.459Z,14.68
2023-01-13T05:40:35.202Z,15.18
2023-01-13T05:43:38.312Z,15.23
2023-01-13T05:46:42.129Z,12.23
2023-01-13T05:49:45.237Z,14.85
2023-01-13T05:52:48.288Z,15.15
2023-01-13T05:55:51.766Z,14.52
2023-01-13T05:58:54.429Z,12.32
2023-01-13T06:01:57.476Z,11.93
2023-01-13T06:05:00.616Z,11.82
2023-01-13T06:08:05.341Z,11.60
2023-01-13T06:11:11.203Z,12.00
2023-01-13T06:14:13.921Z,13.70
2023-01-13T06:17:17.025Z,15.00
2023-01-13T06:20:20.686Z,13.43
2023-01-13T06:23:24.443Z,14.10
2023-01-13T06:26:29.736Z,13.60
2023-01-13T06:29:32.875Z,15.10
2023-01-13T06:32:42.646Z,15.57
2023-01-13T06:35:53.036Z,14.48
2023-01-13T06:39:01.999Z,14.35
2023-01-13T06:42:23.539Z,14.70
2023-01-13T06:45:29.323Z,12.37
2023-01-13T06:48:35.333Z,13.23
2023-01-13T06:51:38.410Z,13.07
2023-01-13T06:54:41.512Z,13.43
2023-01-13T06:57:48.510Z,14.87
2023-01-13T07:00:51.898Z,15.18
2023-01-13T07:03:54.579Z,17.10
2023-01-13T07:06:57.803Z,19.20
2023-01-13T07:10:00.820Z,17.02
2023-01-13T07:13:24.392Z,14.38
2023-01-13T07:16:28.349Z,12.20
2023-01-13T07:19:31.510Z,9.70
2023-01-13T07:22:34.582Z,6.28
2023-01-13T07:25:37.641Z,9.88
2023-01-13T07:28:41.185Z,10.15
2023-01-13T07:31:44.479Z,13.30
2023-01-13T07:34:47.143Z,12.90
2023-01-13T07:37:50.321Z,12.15
2023-01-13T07:40:53.592Z,12.43
2023-01-13T07:43:56.704Z,11.95
2023-01-13T07:46:59.337Z,10.73
2023-01-13T07:50:02.561Z,11.23
2023-01-13T07:53:05.562Z,9.93
2023-01-13T07:56:08.985Z,10.23
2023-01-13T07:59:11.682Z,9.60
2023-01-13T08:02:14.919Z,10.95
2023-01-13T08:05:18.381Z,10.93
2023-01-13T08:08:21.232Z,10.02
2023-01-13T08:11:24.321Z,20.65
2023-01-13T08:14:27.191Z,17.27
2023-01-13T08:17:30.357Z,17.10
2023-01-13T08:20:33.208Z,15.57
2023-01-13T08:23:36.474Z,12.65
2023-01-13T08:26:39.164Z,19.58
2023-01-13T08:29:42.211Z,23.05
2023-01-13T08:32:45.971Z,16.30
2023-01-13T08:35:51.487Z,15.23
2023-01-13T08:38:54.676Z,13.55
2023-01-13T08:41:58.903Z,17.05
2023-01-13T08:45:01.664Z,9.65
2023-01-13T08:48:05.816Z,6.23
2023-01-13T08:51:09.714Z,5.83
2023-01-13T08:54:13.091Z,4.65
2023-01-13T08:57:16.235Z,3.85
2023-01-13T09:00:20.119Z,4.43
2023-01-13T09:03:23.081Z,5.27
2023-01-13T09:06:26.216Z,3.13
2023-01-13T09:09:28.992Z,3.67
2023-01-13T09:12:50.335Z,3.28
2023-01-13T09:15:56.634Z,2.75
2023-01-13T09:18:59.852Z,5.20
2023-01-13T09:22:03.135Z,3.63
2023-01-13T09:25:06.716Z,4.45
2023-01-13T09:28:09.592Z,3.20
2023-01-13T09:31:12.819Z,3.90
2023-01-13T09:34:39.056Z,4.80
2023-01-13T09:37:42.197Z,7.07
2023-01-13T09:40:49.107Z,6.20
2023-01-13T09:43:58.213Z,3.33
2023-01-13T09:47:04.662Z,2.92
2023-01-13T09:50:34.359Z,3.90
2023-01-13T09:53:57.805Z,3.80
2023-01-13T09:57:01.573Z,4.18
2023-01-13T10:00:10.991Z,3.45
2023-01-13T10:03:27.308Z,3.17
2023-01-13T10:06:39.111Z,4.57
2023-01-13T10:09:49.592Z,3.00
2023-01-13T10:13:11.163Z,4.50
2023-01-13T10:16:59.018Z,3.58
2023-01-13T10:20:08.483Z,3.58
2023-01-13T10:23:39.290Z,2.90
2023-01-13T10:27:05.714Z,2.50
2023-01-13T10:30:36.211Z,3.37
2023-01-13T10:33:39.364Z,1.80
2023-01-13T10:37:16.261Z,2.33
2023-01-13T10:40:19.505Z,2.17
2023-01-13T10:43:22.773Z,2.67
2023-01-13T10:46:26.367Z,2.08
2023-01-13T10:49:36.445Z,3.03
2023-01-13T10:52:43.677Z,3.62
2023-01-13T10:56:02.495Z,4.37
2023-01-13T10:59:27.815Z,3.23
2023-01-13T11:02:32.110Z,3.60
2023-01-13T11:05:35.270Z,2.62
2023-01-13T11:08:47.160Z,2.40
2023-01-13T11:11:56.309Z,3.80
2023-01-13T11:15:02.389Z,2.93
2023-01-13T11:18:22.812Z,2.97
2023-01-13T11:21:50.921Z,5.05
2023-01-13T11:25:03.068Z,40.45
2023-01-13T11:28:23.800Z,44.67
2023-01-13T11:31:26.888Z,10.70
2023-01-13T11:34:41.691Z,9.18
2023-01-13T11:37:53.098Z,7.57
2023-01-13T11:41:05.742Z,9.05
2023-01-13T11:44:33.337Z,11.30
2023-01-13T11:47:37.272Z,11.53
2023-01-13T11:50:54.106Z,4.50
2023-01-13T11:54:11.713Z,3.97
2023-01-13T11:57:33.206Z,5.22
2023-01-13T12:00:50.959Z,4.20
2023-01-13T12:04:17.139Z,6.37
2023-01-13T12:07:41.261Z,3.70
2023-01-13T12:11:06.175Z,4.70
2023-01-13T12:14:47.351Z,4.60
2023-01-13T12:18:09.250Z,4.07
2023-01-13T12:21:32.288Z,5.17
2023-01-13T12:24:56.935Z,5.12
2023-01-13T12:28:05.154Z,4.12
2023-01-13T12:31:09.745Z,15.15
2023-01-13T12:34:37.608Z,8.00
2023-01-13T12:37:57.859Z,6.70
2023-01-13T12:41:07.965Z,6.45
2023-01-13T12:44:17.646Z,35.55
2023-01-13T12:47:41.512Z,12.60
2023-01-13T12:50:44.976Z,8.73
2023-01-13T12:53:48.066Z,20.27
2023-01-13T12:56:51.302Z,8.20
2023-01-13T12:59:59.840Z,10.02
2023-01-13T13:03:16.658Z,12.13
2023-01-13T13:06:29.296Z,7.17
2023-01-13T13:09:55.565Z,11.47
2023-01-13T13:13:19.331Z,13.88
2023-01-13T13:16:29.558Z,7.03
2023-01-13T13:19:32.379Z,7.28
2023-01-13T13:22:35.404Z,8.53
2023-01-13T13:26:16.785Z,10.20
2023-01-13T13:29:47.431Z,5.05
2023-01-13T13:33:01.774Z,9.73
2023-01-13T13:36:22.021Z,7.72
2023-01-13T13:39:49.092Z,7.07
2023-01-13T13:43:19.441Z,7.53
2023-01-13T13:46:47.209Z,8.27
2023-01-13T13:49:54.719Z,7.55
2023-01-13T13:53:08.608Z,7.00
2023-01-13T13:56:24.972Z,7.97
2023-01-13T13:59:34.189Z,8.93
2023-01-13T14:02:37.952Z,10.38
2023-01-13T14:06:01.096Z,9.70
2023-01-13T14:09:04.412Z,12.43
2023-01-13T14:12:23.168Z,10.93
2023-01-13T14:15:31.767Z,10.57
2023-01-13T14:18:48.382Z,8.23
2023-01-13T14:21:51.262Z,7.55
2023-01-13T14:24:58.347Z,10.63
2023-01-13T14:28:14.283Z,11.93
2023-01-13T14:31:17.831Z,8.60
2023-01-13T14:34:31.329Z,10.48
2023-01-13T14:37:35.995Z,7.57
2023-01-13T14:40:44.655Z,13.75
2023-01-13T14:43:49.563Z,14.50
2023-01-13T14:46:55.420Z,8.93
2023-01-13T14:50:04.683Z,11.95
2023-01-13T14:53:29.639Z,12.57
2023-01-13T14:56:47.412Z,13.27
2023-01-13T15:00:16.111Z,11.37
2023-01-13T15:03:21.420Z,10.27
2023-01-13T15:06:26.479Z,13.95
2023-01-13T15:09:38.465Z,8.07
2023-01-13T15:12:43.535Z,12.55
2023-01-13T15:15:51.494Z,11.00
2023-01-13T15:18:56.012Z,10.57
2023-01-13T15:21:59.158Z,10.35
2023-01-13T15:25:01.963Z,10.00
2023-01-13T15:28:06.838Z,12.90
2023-01-13T15:31:09.874Z,11.97
2023-01-13T15:34:13.025Z,11.10
2023-01-13T15:37:17.286Z,14.00
2023-01-13T15:40:32.003Z,10.70
2023-01-13T15:43:53.466Z,12.02
2023-01-13T15:46:58.349Z,11.00
2023-01-13T15:50:01.117Z,9.27
2023-01-13T15:53:04.291Z,13.10
2023-01-13T15:56:23.528Z,11.00
2023-01-13T15:59:28.635Z,9.65
2023-01-13T16:02:31.471Z,11.53
2023-01-13T16:05:34.473Z,7.47
2023-01-13T16:08:37.296Z,11.35
2023-01-13T16:11:40.641Z,11.75
2023-01-13T16:14:43.531Z,13.80
2023-01-13T16:17:46.897Z,8.37
2023-01-13T16:20:53.074Z,13.07
2023-01-13T16:23:56.018Z,14.65
2023-01-13T16:26:58.935Z,14.13
2023-01-13T16:30:02.200Z,9.10
2023-01-13T16:33:05.091Z,10.20
2023-01-13T16:36:16.449Z,9.80
2023-01-13T16:39:22.110Z,10.02
2023-01-13T16:42:25.433Z,8.85
2023-01-13T16:45:28.424Z,10.02
2023-01-13T16:48:31.652Z,11.90
2023-01-13T16:51:34.430Z,11.33
2023-01-13T16:54:37.558Z,12.27
2023-01-13T16:57:40.420Z,11.65
2023-01-13T17:00:46.936Z,10.25
2023-01-13T17:03:50.096Z,8.60
2023-01-13T17:07:08.296Z,9.32
2023-01-13T17:10:18.369Z,7.47
2023-01-13T17:13:21.720Z,12.23
2023-01-13T17:16:26.449Z,8.68
2023-01-13T17:19:30.002Z,12.53
2023-01-13T17:22:32.750Z,11.07
2023-01-13T17:25:36.141Z,11.05
2023-01-13T17:28:39.204Z,7.50
2023-01-13T17:31:42.793Z,10.50
2023-01-13T17:34:45.901Z,7.73
2023-01-13T17:37:49.251Z,7.80
2023-01-13T17:40:51.981Z,9.30
2023-01-13T17:43:58.438Z,10.45
2023-01-13T17:47:01.538Z,8.43
2023-01-13T17:50:05.953Z,9.00
2023-01-13T17:53:08.852Z,8.65
2023-01-13T17:56:13.798Z,9.07
2023-01-13T17:59:18.633Z,9.68
2023-01-13T18:02:22.383Z,9.25
2023-01-13T18:05:25.728Z,11.60
2023-01-13T18:08:28.692Z,11.10
2023-01-13T18:11:32.294Z,11.95
2023-01-13T18:14:35.449Z,9.40
2023-01-13T18:17:40.872Z,7.45
2023-01-13T18:21:03.930Z,7.93
2023-01-13T18:24:31.198Z,8.63
2023-01-13T18:27:37.153Z,8.07
2023-01-13T18:30:40.357Z,11.73
2023-01-13T18:33:43.518Z,8.93
2023-01-13T18:36:47.640Z,9.10
2023-01-13T18:39:50.917Z,7.60
2023-01-13T18:42:55.191Z,8.82
2023-01-13T18:45:58.294Z,9.13
2023-01-13T18:49:01.766Z,8.75
2023-01-13T18:52:05.169Z,9.70
2023-01-13T18:55:09.155Z,10.30
2023-01-13T18:58:12.354Z,11.27
2023-01-13T19:01:15.606Z,9.85
2023-01-13T19:04:19.058Z,10.68
2023-01-13T19:07:24.929Z,9.17
2023-01-13T19:10:32.493Z,11.05
2023-01-13T19:13:36.283Z,9.55
2023-01-13T19:16:39.474Z,11.52
2023-01-13T19:19:45.201Z,9.73
2023-01-13T19:22:54.232Z,6.60
2023-01-13T19:26:07.982Z,10.05
2023-01-13T19:29:12.562Z,12.80
2023-01-13T19:32:16.829Z,14.70
2023-01-13T19:35:21.867Z,15.10
2023-01-13T19:38:26.927Z,13.60
2023-01-13T19:41:48.793Z,12.48
2023-01-13T19:45:11.967Z,12.05
2023-01-13T19:48:16.593Z,15.65
2023-01-13T19:51:20.108Z,15.90
2023-01-13T19:54:23.147Z,14.27
2023-01-13T19:57:27.907Z,16.35
2023-01-13T20:00:31.013Z,16.67
2023-01-13T20:03:37.810Z,17.73
2023-01-13T20:06:41.755Z,18.48
2023-01-13T20:09:45.828Z,18.17
2023-01-13T20:12:49.535Z,20.12
2023-01-13T20:15:53.711Z,39.78
2023-01-13T20:18:58.548Z,25.80
2023-01-13T20:22:02.948Z,17.60
2023-01-13T20:25:07.072Z,14.37
2023-01-13T20:28:10.618Z,16.55
2023-01-13T20:31:16.864Z,14.95
2023-01-13T20:34:23.200Z,14.85
2023-01-13T20:37:26.611Z,13.68
2023-01-13T20:40:30.574Z,9.30
2023-01-13T20:43:33.489Z,8.57
2023-01-13T20:46:37.786Z,11.18
2023-01-13T20:49:41.600Z,7.28
2023-01-13T20:52:45.376Z,11.18
2023-01-13T20:55:48.525Z,8.20
2023-01-13T20:58:53.482Z,11.15
2023-01-13T21:01:57.101Z,12.95
2023-01-13T21:05:01.970Z,15.25
2023-01-13T21:08:05.921Z,14.73
2023-01-13T21:11:11.537Z,14.57
2023-01-13T21:14:35.493Z,13.32
2023-01-13T21:17:57.494Z,17.65
2023-01-13T21:21:13.699Z,14.02
2023-01-13T21:24:16.906Z,14.87
2023-01-13T21:27:19.886Z,15.93
2023-01-13T21:30:23.371Z,16.05
2023-01-13T21:33:26.104Z,16.42
2023-01-13T21:36:29.273Z,16.67
2023-01-13T21:39:31.994Z,16.65
2023-01-13T21:42:53.938Z,16.23
2023-01-13T21:46:15.267Z,16.35
2023-01-13T21:49:18.421Z,17.87
2023-01-13T21:52:22.620Z,17.42
2023-01-13T21:55:29.897Z,16.55
2023-01-13T21:58:32.704Z,16.23
2023-01-13T22:01:35.997Z,19.62
2023-01-13T22:04:49.133Z,18.15
2023-01-13T22:07:53.268Z,18.62
2023-01-13T22:11:00.260Z,19.52
2023-01-13T22:14:07.037Z,18.93
2023-01-13T22:17:10.266Z,16.77
2023-01-13T22:20:13.847Z,27.60
2023-01-13T22:23:17.303Z,22.55
2023-01-13T22:26:20.086Z,20.05
2023-01-13T22:29:23.425Z,21.60
2023-01-13T22:32:26.324Z,19.42
2023-01-13T22:35:29.424Z,19.27
2023-01-13T22:38:33.710Z,19.90
2023-01-13T22:41:36.917Z,18.48
2023-01-13T22:44:39.860Z,18.50
2023-01-13T22:47:43.070Z,18.40
2023-01-13T22:50:45.856Z,17.55
2023-01-13T22:53:49.114Z,17.87
2023-01-13T22:56:52.025Z,17.60
2023-01-13T22:59:55.060Z,19.17
2023-01-13T23:02:58.050Z,20.02
2023-01-13T23:06:01.883Z,19.25
2023-01-13T23:09:04.991Z,21.48
2023-01-13T23:12:08.290Z,20.52
2023-01-13T23:15:11.626Z,17.03
2023-01-13T23:18:14.795Z,19.70
2023-01-13T23:21:39.402Z,19.62
2023-01-13T23:24:42.708Z,14.85
2023-01-13T23:27:45.640Z,20.07
2023-01-13T23:30:50.481Z,18.70
2023-01-13T23:33:53.374Z,19.27
2023-01-13T23:36:56.558Z,18.30
2023-01-13T23:39:59.255Z,19.02
2023-01-13T23:43:02.404Z,18.40
2023-01-13T23:46:13.083Z,17.97
2023-01-13T23:49:16.278Z,18.70
2023-01-13T23:52:19.080Z,18.33
2023-01-13T23:55:22.199Z,17.55
2023-01-13T23:58:24.952Z,18.47
